Time;durP1;ratioP1;P1;durP2;ratioP2;P2;SDS_P1;SDS_P2;PMS_P1;PMS_P2;Temp;Humidity;BMP_temperature;BMP_pressure;BME280_temperature;BME280_humidity;BME280_pressure;Samples;Min_cycle;Max_cycle;Signal;HPM_P1;HPM_P2
2022/01/18 00:00:01;;;;;;;33.95;21.42;;;;;;;5.47;81.61;101441.09;341923;28;1203;-66
2022/01/18 00:00:18;;;;;;;33.35;20.63;;;;;;;5.50;81.04;101441.19;341935;28;1848;-67
2022/01/18 00:00:30;;;;;;;33.67;19.50;;;;;;;5.51;81.10;101440.31;342469;28;1095;-67
2022/01/18 00:00:42;;;;;;;32.97;19.77;;;;;;;5.53;81.61;101441.25;342603;28;1093;-66
2022/01/18 00:00:55;;;;;;;31.95;19.88;;;;;;;5.50;81.38;101441.19;342244;28;1191;-66
2022/01/18 00:01:08;;;;;;;33.80;20.58;;;;;;;5.52;81.13;101441.22;341323;29;1205;-67
2022/01/18 00:01:21;;;;;;;33.38;20.40;;;;;;;5.54;81.39;101442.97;341230;29;1042;-67
2022/01/18 00:01:33;;;;;;;33.38;20.02;;;;;;;5.53;81.14;101438.66;341243;29;1064;-66
2022/01/18 00:01:46;;;;;;;33.85;20.15;;;;;;;5.51;81.10;101440.31;341054;28;2303;-66
2022/01/18 00:01:59;;;;;;;35.13;20.48;;;;;;;5.44;81.04;101437.63;341243;28;1437;-67
2022/01/18 00:02:11;;;;;;;34.10;19.88;;;;;;;5.44;81.52;101442.78;342381;28;1150;-66
2022/01/18 00:02:24;;;;;;;33.85;19.70;;;;;;;5.46;81.06;101443.69;342485;28;1181;-67
2022/01/18 00:02:39;;;;;;;33.75;20.63;;;;;;;5.50;80.99;101440.31;341136;29;1075;-67
2022/01/18 00:02:52;;;;;;;33.85;20.73;;;;;;;5.48;81.49;101442.00;340854;29;1708;-66
2022/01/18 00:03:05;;;;;;;32.50;19.65;;;;;;;5.47;81.40;101443.69;340726;29;1235;-67
2022/01/18 00:03:17;;;;;;;33.03;19.67;;;;;;;5.46;81.26;101446.25;340552;29;1992;-66
2022/01/18 00:03:29;;;;;;;34.25;20.55;;;;;;;5.50;81.49;101441.19;341099;29;1182;-66
2022/01/18 00:03:45;;;;;;;32.67;20.33;;;;;;;5.39;81.65;101437.53;341120;29;1069;-67
2022/01/18 00:03:58;;;;;;;31.15;19.90;;;;;;;5.37;81.45;101441.78;341086;29;1149;-67
2022/01/18 00:04:10;;;;;;;31.88;20.13;;;;;;;5.32;81.90;101443.44;341184;29;1266;-66
2022/01/18 00:04:23;;;;;;;31.50;19.33;;;;;;;5.35;81.59;101441.78;340857;29;1060;-66
2022/01/18 00:04:35;;;;;;;30.65;18.83;;;;;;;5.33;81.54;101438.31;340887;28;1024;-66
2022/01/18 00:04:47;;;;;;;33.00;19.65;;;;;;;5.38;81.93;101446.13;342403;28;1436;-67
2022/01/18 00:04:59;;;;;;;35.00;20.73;;;;;;;5.37;82.36;101444.38;342115;28;2239;-66
2022/01/18 00:05:14;;;;;;;37.30;21.27;;;;;;;5.32;82.05;101446.88;342125;28;2214;-66
2022/01/18 00:05:27;;;;;;;35.72;21.00;;;;;;;5.28;81.96;101439.06;342599;28;1087;-67
2022/01/18 00:05:39;;;;;;;33.45;20.23;;;;;;;5.30;82.27;101443.41;342604;28;1059;-66
2022/01/18 00:05:51;;;;;;;34.67;19.85;;;;;;;5.25;82.65;101441.59;342730;28;1086;-66
2022/01/18 00:06:03;;;;;;;34.45;20.02;;;;;;;5.28;81.82;101439.06;342647;28;1248;-67
2022/01/18 00:06:15;;;;;;;33.75;19.73;;;;;;;5.33;81.77;101442.59;342558;28;1545;-66
2022/01/18 00:06:28;;;;;;;32.85;19.63;;;;;;;5.33;81.55;101438.31;342240;28;1277;-67
2022/01/18 00:06:42;;;;;;;33.63;19.48;;;;;;;5.39;81.75;101442.69;342089;28;2178;-66
2022/01/18 00:06:54;;;;;;;34.90;20.13;;;;;;;5.40;82.10;101441.88;342482;28;1299;-67
2022/01/18 00:07:06;;;;;;;36.15;20.30;;;;;;;5.39;81.95;101438.44;341027;29;1067;-66
2022/01/18 00:07:18;;;;;;;35.78;20.38;;;;;;;5.35;81.68;101435.75;341134;29;1227;-67
2022/01/18 00:07:30;;;;;;;35.28;20.75;;;;;;;5.39;82.17;101437.53;341238;29;1317;-66
2022/01/18 00:07:44;;;;;;;32.55;20.42;;;;;;;5.37;81.83;101434.06;341231;28;2312;-66
2022/01/18 00:07:57;;;;;;;31.52;19.52;;;;;;;5.37;81.51;101444.38;342278;28;1219;-66
2022/01/18 00:08:10;;;;;;;31.90;18.77;;;;;;;5.27;82.16;101432.16;342466;28;1104;-67
2022/01/18 00:08:22;;;;;;;32.33;18.63;;;;;;;5.29;81.91;101445.94;342401;28;1305;-67
2022/01/18 00:08:34;;;;;;;36.00;19.98;;;;;;;5.36;81.38;101442.66;342510;28;1298;-67
2022/01/18 00:08:47;;;;;;;36.08;20.77;;;;;;;5.36;81.87;101442.66;342484;28;1100;-67
2022/01/18 00:08:59;;;;;;;35.13;21.08;;;;;;;5.29;81.98;101440.78;342425;28;1485;-66
2022/01/18 00:09:11;;;;;;;34.72;20.25;;;;;;;5.24;82.15;101442.44;342504;28;1023;-66
2022/01/18 00:09:25;;;;;;;34.20;20.42;;;;;;;5.32;81.96;101446.03;342522;28;1067;-66
2022/01/18 00:09:38;;;;;;;33.53;20.15;;;;;;;5.27;82.32;101442.47;342569;28;1095;-67
2022/01/18 00:09:50;;;;;;;33.20;19.70;;;;;;;5.25;81.91;101439.00;341953;28;2394;-66
2022/01/18 00:10:03;;;;;;;33.08;20.05;;;;;;;5.24;82.37;101437.28;342631;28;1521;-66
2022/01/18 00:10:15;;;;;;;35.05;21.20;;;;;;;5.31;81.98;101444.25;342010;28;1811;-66
2022/01/18 00:10:30;;;;;;;33.40;20.75;;;;;;;5.30;82.49;101442.53;341165;29;1077;-66
2022/01/18 00:10:43;;;;;;;33.45;20.40;;;;;;;5.36;81.57;101437.50;341337;29;1055;-66
2022/01/18 00:10:55;;;;;;;36.00;20.55;;;;;;;5.38;81.96;101447.00;340966;29;1012;-67
2022/01/18 00:11:07;;;;;;;35.80;20.08;;;;;;;5.45;81.08;101441.94;341313;29;1122;-67
2022/01/18 00:11:23;;;;;;;33.67;19.65;;;;;;;5.43;81.21;101438.47;340928;29;1341;-66
2022/01/18 00:11:43;;;;;;;34.80;20.15;;;;;;;5.41;81.63;101441.00;340925;29;953;-66
2022/01/18 00:12:26;;;;;;;33.35;20.20;;;;;;;5.43;81.71;101439.31;341185;29;1297;-66
2022/01/18 00:13:58;;;;;;;34.28;19.66;;;;;;;5.60;80.81;101447.38;340926;28;1810;-66
2022/01/18 00:14:01;;;;;;;33.65;19.58;;;;;;;5.54;80.61;101440.38;340015;29;1306;-66
2022/01/18 00:14:24;;;;;;;34.03;19.83;;;;;;;5.53;81.63;101441.25;342183;28;1024;-65
2022/01/18 00:14:42;;;;;;;31.73;20.17;;;;;;;5.55;81.46;101438.66;342264;28;1338;-66
2022/01/18 00:15:16;;;;;;;32.08;19.73;;;;;;;5.50;81.42;101445.47;342386;28;1051;-66
2022/01/18 00:16:09;;;;;;;33.97;20.85;;;;;;;5.55;81.28;101439.56;342242;28;1276;-66
2022/01/18 00:16:37;;;;;;;34.03;20.83;;;;;;;5.65;80.72;101440.56;342406;28;1023;-67
2022/01/18 00:17:40;;;;;;;32.53;19.73;;;;;;;5.67;80.05;101436.28;342377;28;1004;-66
2022/01/18 00:18:07;;;;;;;32.03;19.13;;;;;;;5.70;80.21;101438.06;342551;28;1095;-66
2022/01/18 00:18:19;;;;;;;33.35;20.10;;;;;;;5.68;80.86;101444.91;341090;29;1278;-66
2022/01/18 00:18:34;;;;;;;33.60;20.10;;;;;;;5.69;80.75;101438.91;341081;29;1186;-67
2022/01/18 00:18:49;;;;;;;32.17;19.90;;;;;;;5.73;80.65;101440.69;340995;29;1145;-66
2022/01/18 00:19:07;;;;;;;30.98;18.85;;;;;;;5.68;80.50;101440.63;341650;28;2052;-66
2022/01/18 00:19:23;;;;;;;32.40;18.92;;;;;;;5.72;80.82;101447.56;342308;28;1146;-66
2022/01/18 00:19:40;;;;;;;33.45;20.48;;;;;;;5.74;80.68;101445.00;342448;28;1044;-66
2022/01/18 00:19:55;;;;;;;31.98;19.58;;;;;;;5.75;80.47;101441.56;342759;28;1193;-66
2022/01/18 00:20:10;;;;;;;31.13;18.55;;;;;;;5.69;80.03;101441.47;341330;29;1068;-66
2022/01/18 00:20:37;;;;;;;33.95;20.20;;;;;;;5.67;80.59;101448.31;340813;29;1020;-66
2022/01/18 00:21:48;;;;;;;34.80;20.63;;;;;;;5.59;80.55;101441.34;342270;28;1034;-66
2022/01/18 00:22:09;;;;;;;36.55;21.50;;;;;;;5.50;81.22;101450.63;341840;28;1261;-66
2022/01/18 00:22:25;;;;;;;31.95;19.77;;;;;;;5.56;81.25;101448.16;341418;29;1043;-66
2022/01/18 00:22:37;;;;;;;31.48;20.20;;;;;;;5.60;80.57;101445.63;341269;28;2144;-66
2022/01/18 00:22:49;;;;;;;33.60;20.17;;;;;;;5.60;80.63;101443.06;342218;28;1096;-66
2022/01/18 00:23:01;;;;;;;33.35;19.70;;;;;;;5.65;80.24;101444.84;342704;28;1019;-66
2022/01/18 00:23:14;;;;;;;33.13;20.15;;;;;;;5.65;80.28;101445.72;342544;28;1245;-66
2022/01/18 00:23:27;;;;;;;33.35;20.50;;;;;;;5.67;80.41;101448.31;342499;28;1315;-66
2022/01/18 00:23:40;;;;;;;33.90;20.50;;;;;;;5.70;80.31;101448.38;342357;28;1016;-66
2022/01/18 00:23:55;;;;;;;35.38;21.23;;;;;;;5.68;80.56;101444.91;342208;28;1011;-65
2022/01/18 00:24:08;;;;;;;34.53;21.02;;;;;;;5.68;80.42;101444.91;341416;29;1023;-66
2022/01/18 00:24:20;;;;;;;35.40;20.38;;;;;;;5.53;80.99;101446.41;341349;28;1978;-66
2022/01/18 00:24:32;;;;;;;36.30;19.95;;;;;;;5.48;81.04;101444.59;342427;28;1044;-66
2022/01/18 00:24:44;;;;;;;35.10;20.35;;;;;;;5.37;81.67;101444.38;342566;28;1200;-66
2022/01/18 00:24:58;;;;;;;34.28;20.98;;;;;;;5.41;81.21;101451.31;342565;28;1287;-66
2022/01/18 00:25:11;;;;;;;32.30;20.40;;;;;;;5.43;80.85;101449.63;342475;28;1087;-66
2022/01/18 00:25:23;;;;;;;31.55;19.73;;;;;;;5.37;81.68;101445.25;342473;28;1046;-66
2022/01/18 00:25:38;;;;;;;31.17;19.58;;;;;;;5.38;81.49;101439.25;342466;28;1026;-66
2022/01/18 00:25:54;;;;;;;31.83;20.33;;;;;;;5.37;81.63;101444.38;342281;28;1055;-66
2022/01/18 00:26:09;;;;;;;31.88;19.85;;;;;;;5.38;81.83;101448.72;341422;29;1166;-66
2022/01/18 00:26:27;;;;;;;31.70;19.27;;;;;;;5.43;81.09;101449.63;340873;29;1052;-66
2022/01/18 00:26:39;;;;;;;33.88;20.44;;;;;;;5.45;80.94;101450.53;341121;29;1278;-66
2022/01/18 00:26:51;;;;;;;33.28;20.60;;;;;;;5.40;81.10;101449.59;341209;29;1099;-67
2022/01/18 00:27:08;;;;;;;32.70;19.98;;;;;;;5.37;81.24;101452.13;342057;28;1027;-66
2022/01/18 00:27:20;;;;;;;32.78;19.23;;;;;;;5.40;81.21;101454.75;342493;28;1211;-66
2022/01/18 00:27:32;;;;;;;33.67;19.48;;;;;;;5.43;80.94;101444.47;342639;28;2780;-66
2022/01/18 00:27:44;;;;;;;33.00;19.75;;;;;;;5.42;81.10;101447.06;342409;28;1032;-66
2022/01/18 00:27:56;;;;;;;33.47;20.40;;;;;;;5.48;80.83;101452.31;341995;28;1858;-66
2022/01/18 00:28:08;;;;;;;34.22;20.58;;;;;;;5.51;80.72;101458.38;342102;28;1132;-66
2022/01/18 00:28:22;;;;;;;34.25;20.40;;;;;;;5.47;81.52;101456.59;342623;28;1420;-66
2022/01/18 00:28:36;;;;;;;34.42;19.77;;;;;;;5.42;80.73;101447.91;342168;28;1047;-66
2022/01/18 00:28:54;;;;;;;34.53;19.08;;;;;;;5.45;80.71;101458.28;341093;29;1036;-66
2022/01/18 00:29:10;;;;;;;32.90;19.63;;;;;;;5.50;81.23;101451.50;341236;29;1082;-66
2022/01/18 00:29:24;;;;;;;32.70;20.52;;;;;;;5.55;81.12;101455.03;340971;29;1008;-66
2022/01/18 00:29:41;;;;;;;33.88;20.60;;;;;;;5.52;81.09;101457.53;340981;29;1242;-66
2022/01/18 00:30:13;;;;;;;31.52;19.60;;;;;;;5.56;81.31;101450.72;341175;29;1064;-66
2022/01/18 00:31:31;;;;;;;33.47;21.33;;;;;;;5.58;81.29;101460.22;341210;29;1281;-66
2022/01/18 00:32:37;;;;;;;33.85;20.45;;;;;;;5.52;81.26;101465.28;342146;28;1561;-66
2022/01/18 00:33:00;;;;;;;34.95;18.73;;;;;;;5.59;80.97;101467.13;342446;28;1097;-65
2022/01/18 00:33:21;;;;;;;33.58;20.15;;;;;;;5.52;80.83;101464.44;342432;28;1079;-66
2022/01/18 00:33:47;;;;;;;30.98;20.20;;;;;;;5.52;81.51;101469.59;342511;28;1035;-66
2022/01/18 00:34:26;;;;;;;32.50;18.80;;;;;;;5.58;81.13;101467.09;342219;28;1040;-66
2022/01/18 00:34:40;;;;;;;32.47;19.67;;;;;;;5.59;80.60;101464.56;342308;28;1435;-66
2022/01/18 00:34:56;;;;;;;34.22;20.55;;;;;;;5.58;81.02;101465.38;342310;28;1134;-66
2022/01/18 00:35:08;;;;;;;34.67;20.50;;;;;;;5.61;80.72;101469.72;340945;29;1074;-66
2022/01/18 00:35:20;;;;;;;32.53;19.45;;;;;;;5.61;81.02;101469.72;341642;28;2182;-66
2022/01/18 00:35:35;;;;;;;31.92;18.90;;;;;;;5.62;80.29;101470.63;342144;28;2443;-66
2022/01/18 00:35:51;;;;;;;32.17;18.48;;;;;;;5.63;80.65;101468.03;342060;28;1881;-66
2022/01/18 00:36:20;;;;;;;31.98;19.05;;;;;;;5.65;81.17;101470.66;342206;28;1094;-67
2022/01/18 00:36:39;;;;;;;35.17;20.15;;;;;;;5.60;80.31;101468.00;342219;28;1052;-66
2022/01/18 00:37:26;;;;;;;32.92;18.85;;;;;;;5.60;80.96;101466.28;342377;28;1101;-66
2022/01/18 00:37:49;;;;;;;32.28;20.13;;;;;;;5.65;80.99;101468.06;342343;28;1100;-66
2022/01/18 00:38:14;;;;;;;33.67;20.17;;;;;;;5.62;80.22;101470.63;342331;28;1423;-66
2022/01/18 00:38:46;;;;;;;34.20;18.85;;;;;;;5.60;80.68;101468.84;342217;28;1261;-66
2022/01/18 00:38:58;;;;;;;34.22;20.05;;;;;;;5.64;80.39;101479.25;342040;28;2080;-66
2022/01/18 00:39:11;;;;;;;34.35;20.20;;;;;;;5.55;80.57;101470.50;342169;28;1122;-66
2022/01/18 00:39:23;;;;;;;35.33;20.67;;;;;;;5.60;80.85;101468.00;342563;28;1071;-66
2022/01/18 00:39:41;;;;;;;35.28;20.35;;;;;;;5.62;81.18;101470.63;342568;28;1635;-66
2022/01/18 00:39:54;;;;;;;35.72;21.33;;;;;;;5.59;80.42;101471.41;342638;28;1031;-67
2022/01/18 00:40:07;;;;;;;37.45;22.45;;;;;;;5.51;80.96;101473.00;342203;28;1092;-66
2022/01/18 00:40:19;;;;;;;39.53;27.45;;;;;;;5.57;80.54;101476.56;342284;28;1445;-67
2022/01/18 00:40:31;;;;;;;37.03;26.42;;;;;;;5.57;80.77;101471.41;342376;28;1026;-66
2022/01/18 00:40:43;;;;;;;33.34;22.36;;;;;;;5.64;80.98;101474.94;342382;28;1245;-66
2022/01/18 00:40:56;;;;;;;34.45;20.25;;;;;;;5.62;80.67;101468.03;342197;28;1993;-66
2022/01/18 00:41:11;;;;;;;35.75;21.02;;;;;;;5.65;80.50;101470.66;342078;28;1612;-66
2022/01/18 00:41:25;;;;;;;33.63;20.70;;;;;;;5.67;80.52;101472.41;341796;28;1800;-69
2022/01/18 00:41:39;;;;;;;32.45;20.35;;;;;;;5.72;80.75;101473.38;341003;29;1603;-66
2022/01/18 00:41:52;;;;;;;34.55;21.33;;;;;;;5.75;79.68;101472.53;342817;28;1556;-66
2022/01/18 00:42:04;;;;;;;34.95;21.80;;;;;;;5.70;80.23;101474.19;342419;28;1552;-65
2022/01/18 00:42:16;;;;;;;34.72;22.70;;;;;;;5.69;80.37;101475.88;342528;28;1500;-66
2022/01/18 00:42:31;;;;;;;36.35;25.08;;;;;;;5.63;80.43;101467.19;343568;28;1290;-66
2022/01/18 00:42:44;;;;;;;35.50;23.80;;;;;;;5.58;80.86;101475.69;343143;28;1706;-66
2022/01/18 00:42:56;;;;;;;34.95;21.20;;;;;;;5.59;80.36;101472.31;342433;28;2133;-66
2022/01/18 00:43:09;;;;;;;34.35;20.40;;;;;;;5.62;81.09;101468.03;342715;28;1149;-66
2022/01/18 00:43:21;;;;;;;34.20;19.55;;;;;;;5.62;80.15;101468.03;342321;28;1508;-66
2022/01/18 00:43:35;;;;;;;33.35;19.40;;;;;;;5.53;80.41;101472.19;343929;28;1324;-66
2022/01/18 00:43:48;;;;;;;36.97;22.23;;;;;;;5.55;80.88;101469.63;343829;28;1214;-66
2022/01/18 00:44:01;;;;;;;37.47;24.50;;;;;;;5.48;80.47;101473.81;343178;28;1051;-66
2022/01/18 00:44:14;;;;;;;36.85;23.98;;;;;;;5.36;81.90;101473.59;342260;28;1082;-66
2022/01/18 00:44:26;;;;;;;36.90;26.25;;;;;;;5.36;81.01;101471.03;342260;28;1068;-66
2022/01/18 00:44:38;;;;;;;36.45;26.73;;;;;;;5.43;81.14;101470.28;342591;28;1017;-65
2022/01/18 00:44:51;;;;;;;35.20;24.60;;;;;;;5.49;81.29;101474.66;342239;28;1249;-66
2022/01/18 00:45:03;;;;;;;33.15;21.50;;;;;;;5.49;80.92;101475.53;342636;28;1746;-66
2022/01/18 00:45:15;;;;;;;33.20;19.90;;;;;;;5.49;80.60;101483.28;342725;28;1209;-66
2022/01/18 00:45:27;;;;;;;32.40;19.52;;;;;;;5.49;80.79;101472.94;342665;28;1118;-66
2022/01/18 00:45:39;;;;;;;32.53;20.02;;;;;;;5.51;80.79;101468.69;343260;28;1853;-66
2022/01/18 00:45:51;;;;;;;30.40;19.88;;;;;;;5.55;80.92;101475.66;341046;29;1172;-66
2022/01/18 00:46:03;;;;;;;31.38;20.27;;;;;;;5.54;80.99;101479.06;342030;28;1517;-66
2022/01/18 00:46:16;;;;;;;32.10;19.92;;;;;;;5.49;80.81;101475.53;342382;28;1096;-66
2022/01/18 00:46:28;;;;;;;33.45;19.33;;;;;;;5.48;80.97;101473.81;342475;28;1039;-66
2022/01/18 00:46:40;;;;;;;34.47;19.63;;;;;;;5.46;81.06;101480.66;342274;28;1016;-66
2022/01/18 00:46:52;;;;;;;34.00;20.26;;;;;;;5.51;80.73;101478.16;342071;28;1162;-66
2022/01/18 00:47:05;;;;;;;33.45;20.27;;;;;;;5.45;81.52;101473.75;342086;28;1699;-66
2022/01/18 00:47:17;;;;;;;33.70;20.35;;;;;;;5.49;81.21;101478.13;342496;28;1110;-66
2022/01/18 00:47:29;;;;;;;32.05;20.10;;;;;;;5.55;80.98;101480.81;342290;28;1889;-66
2022/01/18 00:47:41;;;;;;;31.58;19.85;;;;;;;5.49;80.77;101475.53;341413;28;1638;-66
2022/01/18 00:47:53;;;;;;;33.08;19.20;;;;;;;5.52;81.08;101470.44;342515;28;1355;-67
2022/01/18 00:48:05;;;;;;;33.20;18.77;;;;;;;5.55;80.94;101470.50;342529;28;1210;-66
2022/01/18 00:48:20;;;;;;;32.88;19.17;;;;;;;5.55;80.91;101475.66;343548;28;1755;-66
2022/01/18 00:48:36;;;;;;;35.60;20.52;;;;;;;5.60;80.41;101468.84;342113;28;2053;-66
2022/01/18 00:48:48;;;;;;;35.45;20.58;;;;;;;5.64;80.58;101471.50;342816;28;1560;-66
2022/01/18 00:49:02;;;;;;;33.72;19.50;;;;;;;5.69;80.28;101470.72;342653;28;1177;-65
2022/01/18 00:49:15;;;;;;;32.63;18.63;;;;;;;5.70;80.37;101474.19;340731;29;2543;-66
2022/01/18 00:49:27;;;;;;;32.20;18.73;;;;;;;5.76;80.74;101479.44;339692;29;1091;-66
2022/01/18 00:49:43;;;;;;;33.13;19.40;;;;;;;5.79;80.66;101471.75;340038;29;1047;-66
2022/01/18 00:50:00;;;;;;;34.53;19.38;;;;;;;5.85;80.11;101473.56;339028;29;1659;-66
2022/01/18 00:50:12;;;;;;;32.55;19.25;;;;;;;5.87;79.55;101477.03;338548;29;1261;-66
2022/01/18 00:50:30;;;;;;;31.48;19.98;;;;;;;5.90;80.25;101477.94;338362;29;1036;-66
2022/01/18 00:50:43;;;;;;;33.92;20.67;;;;;;;5.95;79.65;101476.31;338473;29;1241;-66
2022/01/18 00:50:56;;;;;;;35.88;21.15;;;;;;;5.94;78.98;101469.41;338260;29;1076;-66
2022/01/18 00:51:12;;;;;;;36.05;20.40;;;;;;;5.96;79.09;101475.50;339770;29;1112;-66
2022/01/18 00:51:25;;;;;;;35.10;19.27;;;;;;;5.88;79.22;101476.19;339713;29;1100;-65
2022/01/18 00:51:39;;;;;;;34.17;18.88;;;;;;;5.90;79.14;101469.34;340839;29;1099;-66
2022/01/18 00:51:53;;;;;;;33.65;19.00;;;;;;;5.92;79.29;101476.25;341348;29;861;-66
2022/01/18 00:52:06;;;;;;;33.53;20.10;;;;;;;5.93;79.25;101483.16;340376;29;1922;-66
2022/01/18 00:52:23;;;;;;;32.42;19.80;;;;;;;5.84;79.51;101477.84;342105;28;1251;-66
2022/01/18 00:52:40;;;;;;;32.05;19.38;;;;;;;5.88;79.43;101477.06;342206;28;1175;-66
2022/01/18 00:52:53;;;;;;;33.40;20.38;;;;;;;5.88;79.68;101479.66;342459;28;1079;-66
2022/01/18 00:53:10;;;;;;;34.25;20.88;;;;;;;5.90;79.88;101474.50;342028;28;1096;-66
2022/01/18 00:53:25;;;;;;;33.75;20.23;;;;;;;5.92;79.99;101480.56;342484;28;1262;-66
2022/01/18 00:53:42;;;;;;;32.30;19.80;;;;;;;5.97;78.99;101474.63;342485;28;1051;-66
2022/01/18 00:53:59;;;;;;;32.45;20.33;;;;;;;6.00;79.65;101474.69;342384;28;1057;-66
2022/01/18 00:54:21;;;;;;;32.00;19.35;;;;;;;6.00;79.10;101479.88;340887;29;1066;-66
2022/01/18 00:54:39;;;;;;;33.55;19.30;;;;;;;6.04;79.31;101472.16;341043;29;1024;-66
2022/01/18 00:54:51;;;;;;;33.70;19.70;;;;;;;5.95;79.19;101471.16;341400;28;1040;-66
2022/01/18 00:55:04;;;;;;;33.33;19.95;;;;;;;5.87;78.71;101472.72;342309;28;1245;-66
2022/01/18 00:55:16;;;;;;;32.28;19.98;;;;;;;5.90;79.17;101477.09;342557;28;1195;-66
2022/01/18 00:55:34;;;;;;;32.50;20.27;;;;;;;5.92;79.20;101480.56;342182;28;1101;-66
2022/01/18 00:55:59;;;;;;;33.42;20.38;;;;;;;5.83;79.47;101481.28;342214;28;1204;-67
2022/01/18 00:56:28;;;;;;;34.80;19.98;;;;;;;5.84;79.82;101472.69;343965;28;1287;-66
2022/01/18 00:56:42;;;;;;;36.33;20.83;;;;;;;5.86;79.94;101483.06;343625;28;1304;-66
2022/01/18 00:56:55;;;;;;;37.22;21.40;;;;;;;5.84;79.92;101477.84;343840;28;1011;-66
2022/01/18 00:57:07;;;;;;;37.30;21.27;;;;;;;5.82;80.38;101476.09;339642;29;1240;-66
2022/01/18 00:57:20;;;;;;;35.65;20.60;;;;;;;5.88;79.49;101479.66;339654;29;1050;-66
2022/01/18 00:57:32;;;;;;;36.22;20.58;;;;;;;5.79;80.14;101484.63;339759;29;1190;-66
2022/01/18 00:57:44;;;;;;;35.30;20.52;;;;;;;5.73;79.63;101479.38;339797;29;1096;-66
2022/01/18 00:57:56;;;;;;;34.03;20.38;;;;;;;5.74;80.36;101482.00;339748;29;1092;-66
2022/01/18 00:58:08;;;;;;;33.78;19.58;;;;;;;5.75;79.95;101478.56;339599;29;1134;-66
2022/01/18 00:58:19;;;;;;;35.60;20.02;;;;;;;5.79;79.76;101482.97;339567;29;2297;-66
2022/01/18 00:58:32;;;;;;;35.58;20.55;;;;;;;5.83;79.83;101491.59;340770;29;2187;-66
2022/01/18 00:58:46;;;;;;;35.88;20.98;;;;;;;5.86;80.10;101491.66;341104;29;1184;-66
2022/01/18 00:59:01;;;;;;;36.08;20.80;;;;;;;5.79;80.06;101480.38;341224;28;1742;-66
2022/01/18 00:59:15;;;;;;;33.55;19.35;;;;;;;5.79;80.14;101489.81;342023;28;1160;-66
2022/01/18 00:59:27;;;;;;;33.33;19.65;;;;;;;5.85;79.70;101489.03;342507;28;1348;-66
2022/01/18 00:59:41;;;;;;;34.58;20.35;;;;;;;5.88;79.55;101484.81;342168;28;1178;-66
2022/01/18 00:59:58;;;;;;;35.55;20.55;;;;;;;5.92;79.78;101489.16;342312;28;1212;-67
2022/01/18 01:00:11;;;;;;;33.83;19.15;;;;;;;5.92;79.30;101480.56;342417;28;1023;-66
2022/01/18 01:00:23;;;;;;;32.55;19.10;;;;;;;5.93;78.96;101485.72;342469;28;1087;-65
2022/01/18 01:00:35;;;;;;;33.97;19.92;;;;;;;5.96;79.11;101492.72;342407;28;1179;-66
2022/01/18 01:00:47;;;;;;;35.47;20.48;;;;;;;5.97;78.69;101495.28;342408;28;1343;-67
2022/01/18 01:00:59;;;;;;;36.30;20.90;;;;;;;5.94;78.09;101484.91;341965;28;1867;-66
2022/01/18 01:01:11;;;;;;;37.45;21.40;;;;;;;5.93;78.18;101485.72;342355;28;2320;-66
2022/01/18 01:01:27;;;;;;;37.47;21.30;;;;;;;5.93;77.79;101488.31;342121;28;1123;-66
2022/01/18 01:01:39;;;;;;;36.00;19.98;;;;;;;5.92;77.77;101485.72;341888;28;2324;-66
2022/01/18 01:01:51;;;;;;;34.30;19.63;;;;;;;5.89;77.75;101486.53;342348;28;1087;-66
2022/01/18 01:02:04;;;;;;;34.05;19.73;;;;;;;5.89;78.09;101480.50;342496;28;1107;-66
2022/01/18 01:02:17;;;;;;;34.75;19.92;;;;;;;5.92;79.00;101484.00;342470;28;1054;-66
2022/01/18 01:02:29;;;;;;;34.47;19.90;;;;;;;5.89;79.15;101480.50;342607;28;1000;-66
2022/01/18 01:02:41;;;;;;;33.20;19.77;;;;;;;5.89;78.09;101476.19;342536;28;1191;-67
2022/01/18 01:02:54;;;;;;;34.38;19.77;;;;;;;5.89;77.54;101481.38;342412;28;1088;-66
2022/01/18 01:03:06;;;;;;;32.03;19.05;;;;;;;5.91;77.66;101487.41;340860;29;1045;-66
2022/01/18 01:03:19;;;;;;;30.73;19.02;;;;;;;5.93;77.53;101485.72;340536;29;1076;-66
2022/01/18 01:03:44;;;;;;;33.05;19.63;;;;;;;5.96;77.59;101483.25;340661;28;1435;-66
2022/01/18 01:04:01;;;;;;;33.72;19.42;;;;;;;5.95;76.76;101483.22;342093;28;1447;-66
2022/01/18 01:04:14;;;;;;;32.88;19.75;;;;;;;6.00;77.85;101487.59;342511;28;1065;-66
2022/01/18 01:04:30;;;;;;;32.88;20.08;;;;;;;5.96;77.00;101482.38;342352;28;1076;-65
2022/01/18 01:04:47;;;;;;;31.40;19.14;;;;;;;5.94;77.50;101484.91;341990;28;980;-66
2022/01/18 01:05:01;;;;;;;31.02;19.30;;;;;;;5.90;76.65;101480.53;340748;29;1261;-67
2022/01/18 01:05:13;;;;;;;35.03;20.35;;;;;;;5.92;76.72;101486.59;340657;28;1720;-66
2022/01/18 01:05:25;;;;;;;34.28;20.25;;;;;;;5.93;76.92;101488.31;340703;29;2095;-66
2022/01/18 01:05:37;;;;;;;34.08;20.50;;;;;;;5.94;77.50;101479.75;340976;29;1100;-66
2022/01/18 01:05:49;;;;;;;32.88;20.38;;;;;;;5.94;77.25;101479.75;340861;29;1073;-67
2022/01/18 01:06:03;;;;;;;35.63;20.08;;;;;;;5.95;77.38;101481.50;341823;28;1485;-66
2022/01/18 01:06:15;;;;;;;35.13;19.15;;;;;;;5.92;77.21;101486.59;342428;28;1256;-66
2022/01/18 01:06:28;;;;;;;34.13;19.35;;;;;;;5.88;77.16;101478.78;341107;29;1079;-66
2022/01/18 01:06:40;;;;;;;35.95;20.17;;;;;;;5.90;77.34;101485.69;341143;29;1014;-66
2022/01/18 01:06:55;;;;;;;35.33;20.45;;;;;;;5.89;78.27;101483.94;341093;29;1356;-66
2022/01/18 01:07:07;;;;;;;33.42;20.67;;;;;;;5.90;78.00;101475.38;340983;29;1730;-66
2022/01/18 01:07:22;;;;;;;33.58;20.77;;;;;;;5.92;78.39;101489.16;340823;29;1190;-66
2022/01/18 01:07:37;;;;;;;36.47;19.92;;;;;;;5.89;77.87;101485.66;340873;29;1149;-66
2022/01/18 01:08:09;;;;;;;35.28;20.00;;;;;;;5.85;78.32;101478.72;339833;29;1330;-65
2022/01/18 01:08:21;;;;;;;34.22;19.73;;;;;;;5.87;78.56;101482.19;339594;29;1493;-67
2022/01/18 01:08:35;;;;;;;33.05;19.48;;;;;;;5.89;77.98;101481.38;341125;29;1161;-66
2022/01/18 01:08:47;;;;;;;35.13;20.52;;;;;;;5.89;77.59;101486.53;341207;29;1071;-66
2022/01/18 01:08:59;;;;;;;38.20;21.52;;;;;;;5.87;78.77;101483.06;341457;28;1197;-66
2022/01/18 01:09:11;;;;;;;36.75;21.42;;;;;;;5.87;78.77;101477.03;342273;28;2017;-66
2022/01/18 01:09:23;;;;;;;33.95;20.23;;;;;;;5.90;78.48;101488.28;340936;29;1256;-65
2022/01/18 01:09:37;;;;;;;32.08;18.95;;;;;;;5.90;78.89;101488.28;340737;29;1048;-66
2022/01/18 01:09:50;;;;;;;31.48;18.55;;;;;;;5.93;78.85;101483.16;341084;29;1216;-65
2022/01/18 01:10:03;;;;;;;33.22;19.65;;;;;;;5.94;79.14;101490.06;342072;28;1267;-66
2022/01/18 01:10:15;;;;;;;33.53;19.98;;;;;;;6.00;79.06;101484.16;342318;28;1074;-67
2022/01/18 01:10:28;;;;;;;31.92;19.95;;;;;;;6.01;78.70;101485.88;342320;28;1099;-66
2022/01/18 01:10:40;;;;;;;30.65;19.10;;;;;;;6.04;78.52;101491.13;342254;28;1202;-67
2022/01/18 01:10:53;;;;;;;31.98;19.17;;;;;;;6.06;78.48;101493.72;341400;28;2219;-66
2022/01/18 01:11:07;;;;;;;32.50;18.83;;;;;;;6.08;78.29;101486.88;342230;28;1281;-66
2022/01/18 01:11:20;;;;;;;33.83;20.17;;;;;;;6.06;78.35;101488.56;342276;28;1052;-66
2022/01/18 01:11:37;;;;;;;33.33;20.30;;;;;;;6.06;78.82;101484.25;342488;28;1689;-66
2022/01/18 01:11:50;;;;;;;32.63;19.88;;;;;;;6.08;78.40;101492.03;342127;28;1275;-66
2022/01/18 01:12:02;;;;;;;32.75;19.58;;;;;;;6.05;78.74;101486.81;342669;28;1054;-66
2022/01/18 01:12:17;;;;;;;33.80;19.55;;;;;;;6.00;78.59;101490.19;342135;28;1253;-67
2022/01/18 01:12:29;;;;;;;33.90;19.42;;;;;;;6.00;78.94;101487.59;342625;28;1315;-66
2022/01/18 01:12:42;;;;;;;32.88;19.83;;;;;;;6.00;78.31;101490.19;342334;28;1105;-66
2022/01/18 01:12:54;;;;;;;32.85;20.08;;;;;;;5.98;78.70;101485.84;342332;28;1028;-66
2022/01/18 01:13:08;;;;;;;33.45;19.98;;;;;;;5.97;78.77;101495.28;340888;29;1027;-66
2022/01/18 01:13:20;;;;;;;33.92;19.63;;;;;;;5.97;78.70;101495.28;340972;29;1890;-66
2022/01/18 01:13:33;;;;;;;35.65;19.15;;;;;;;6.00;78.78;101491.91;340898;29;1299;-66
2022/01/18 01:13:48;;;;;;;36.10;19.33;;;;;;;5.97;79.30;101489.25;340939;28;1951;-66
2022/01/18 01:14:02;;;;;;;32.60;19.45;;;;;;;5.90;78.97;101488.28;341752;28;1203;-66
2022/01/18 01:14:19;;;;;;;30.45;19.38;;;;;;;5.93;79.24;101493.47;341077;29;1196;-66